sensor_id;sensor_type;location;lat;lon;timestamp;P1;durP1;ratioP1;P2;durP2;ratioP2
26337;SDS011;14050;50.950;4.460;2023-03-14T00:00:40;9.68;;;1.95;;
26337;SDS011;14050;50.950;4.460;2023-03-14T00:05:40;12.73;;;1.88;;
26337;SDS011;14050;50.950;4.460;2023-03-14T00:10:40;8.65;;;1.83;;
26337;SDS011;14050;50.950;4.460;2023-03-14T00:15:40;10.23;;;2.03;;
26337;SDS011;14050;50.950;4.460;2023-03-14T00:20:41;7.18;;;1.70;;
26337;SDS011;14050;50.950;4.460;2023-03-14T00:25:41;10.32;;;2.42;;
26337;SDS011;14050;50.950;4.460;2023-03-14T00:30:41;10.57;;;2.10;;
26337;SDS011;14050;50.950;4.460;2023-03-14T00:35:41;7.50;;;2.22;;
26337;SDS011;14050;50.950;4.460;2023-03-14T00:40:42;10.80;;;2.20;;
26337;SDS011;14050;50.950;4.460;2023-03-14T00:45:42;13.13;;;2.40;;
26337;SDS011;14050;50.950;4.460;2023-03-14T00:50:42;12.27;;;2.47;;
26337;SDS011;14050;50.950;4.460;2023-03-14T00:55:43;17.38;;;3.47;;
26337;SDS011;14050;50.950;4.460;2023-03-14T01:00:44;11.30;;;2.88;;
26337;SDS011;14050;50.950;4.460;2023-03-14T01:05:44;12.05;;;2.75;;
26337;SDS011;14050;50.950;4.460;2023-03-14T01:10:45;14.15;;;2.55;;
26337;SDS011;14050;50.950;4.460;2023-03-14T01:15:45;13.15;;;3.15;;
26337;SDS011;14050;50.950;4.460;2023-03-14T01:20:45;16.08;;;2.63;;
26337;SDS011;14050;50.950;4.460;2023-03-14T01:25:45;14.25;;;3.03;;
26337;SDS011;14050;50.950;4.460;2023-03-14T01:30:46;15.75;;;2.85;;
26337;SDS011;14050;50.950;4.460;2023-03-14T01:35:49;12.82;;;3.00;;
26337;SDS011;14050;50.950;4.460;2023-03-14T01:40:49;14.30;;;3.00;;
26337;SDS011;14050;50.950;4.460;2023-03-14T01:51:06;15.35;;;2.70;;
26337;SDS011;14050;50.950;4.460;2023-03-14T01:56:09;16.73;;;3.42;;
26337;SDS011;14050;50.950;4.460;2023-03-14T02:01:10;10.68;;;2.67;;
26337;SDS011;14050;50.950;4.460;2023-03-14T02:06:11;13.60;;;2.72;;
26337;SDS011;14050;50.950;4.460;2023-03-14T02:11:11;9.07;;;2.42;;
26337;SDS011;14050;50.950;4.460;2023-03-14T02:16:12;8.43;;;1.88;;
26337;SDS011;14050;50.950;4.460;2023-03-14T02:27:27;8.68;;;1.90;;
26337;SDS011;14050;50.950;4.460;2023-03-14T02:32:03;10.57;;;1.92;;
26337;SDS011;14050;50.950;4.460;2023-03-14T02:37:03;10.85;;;2.30;;
26337;SDS011;14050;50.950;4.460;2023-03-14T02:42:05;6.72;;;1.95;;
26337;SDS011;14050;50.950;4.460;2023-03-14T02:47:05;9.57;;;2.07;;
26337;SDS011;14050;50.950;4.460;2023-03-14T02:52:05;9.15;;;2.10;;
26337;SDS011;14050;50.950;4.460;2023-03-14T02:57:06;9.13;;;2.45;;
26337;SDS011;14050;50.950;4.460;2023-03-14T03:02:06;14.85;;;3.50;;
26337;SDS011;14050;50.950;4.460;2023-03-14T03:07:06;8.40;;;2.23;;
26337;SDS011;14050;50.950;4.460;2023-03-14T03:12:07;11.32;;;2.83;;
26337;SDS011;14050;50.950;4.460;2023-03-14T03:17:07;8.70;;;3.10;;
26337;SDS011;14050;50.950;4.460;2023-03-14T03:22:07;13.73;;;4.23;;
26337;SDS011;14050;50.950;4.460;2023-03-14T03:27:07;13.97;;;3.53;;
26337;SDS011;14050;50.950;4.460;2023-03-14T03:32:08;11.43;;;3.30;;
26337;SDS011;14050;50.950;4.460;2023-03-14T03:37:08;14.85;;;3.63;;
26337;SDS011;14050;50.950;4.460;2023-03-14T03:42:09;18.53;;;3.80;;
26337;SDS011;14050;50.950;4.460;2023-03-14T03:47:09;13.73;;;3.25;;
26337;SDS011;14050;50.950;4.460;2023-03-14T03:52:10;13.80;;;3.92;;
26337;SDS011;14050;50.950;4.460;2023-03-14T03:57:10;15.77;;;3.70;;
26337;SDS011;14050;50.950;4.460;2023-03-14T04:02:10;15.18;;;3.95;;
26337;SDS011;14050;50.950;4.460;2023-03-14T04:07:10;18.17;;;5.32;;
26337;SDS011;14050;50.950;4.460;2023-03-14T04:12:14;13.15;;;5.10;;
26337;SDS011;14050;50.950;4.460;2023-03-14T04:17:15;14.25;;;5.35;;
26337;SDS011;14050;50.950;4.460;2023-03-14T04:22:15;10.52;;;4.60;;
26337;SDS011;14050;50.950;4.460;2023-03-14T04:27:16;14.73;;;5.40;;
26337;SDS011;14050;50.950;4.460;2023-03-14T04:32:16;12.30;;;4.63;;
26337;SDS011;14050;50.950;4.460;2023-03-14T04:37:16;13.38;;;4.88;;
26337;SDS011;14050;50.950;4.460;2023-03-14T04:42:16;12.15;;;4.95;;
26337;SDS011;14050;50.950;4.460;2023-03-14T04:47:17;14.80;;;4.53;;
26337;SDS011;14050;50.950;4.460;2023-03-14T04:52:17;12.10;;;3.50;;
26337;SDS011;14050;50.950;4.460;2023-03-14T04:57:17;17.38;;;4.10;;
26337;SDS011;14050;50.950;4.460;2023-03-14T05:02:18;9.15;;;3.22;;
26337;SDS011;14050;50.950;4.460;2023-03-14T05:07:18;8.53;;;2.60;;
26337;SDS011;14050;50.950;4.460;2023-03-14T05:12:19;7.25;;;2.40;;
26337;SDS011;14050;50.950;4.460;2023-03-14T05:17:19;7.10;;;2.53;;
26337;SDS011;14050;50.950;4.460;2023-03-14T05:22:20;8.23;;;2.85;;
26337;SDS011;14050;50.950;4.460;2023-03-14T05:27:21;8.27;;;2.80;;
26337;SDS011;14050;50.950;4.460;2023-03-14T05:32:21;8.30;;;2.60;;
26337;SDS011;14050;50.950;4.460;2023-03-14T05:37:21;7.63;;;2.50;;
26337;SDS011;14050;50.950;4.460;2023-03-14T05:42:22;11.05;;;2.40;;
26337;SDS011;14050;50.950;4.460;2023-03-14T05:47:23;5.23;;;2.40;;
26337;SDS011;14050;50.950;4.460;2023-03-14T05:52:23;6.15;;;2.95;;
26337;SDS011;14050;50.950;4.460;2023-03-14T05:57:23;10.07;;;2.67;;
26337;SDS011;14050;50.950;4.460;2023-03-14T06:02:23;5.22;;;2.22;;
26337;SDS011;14050;50.950;4.460;2023-03-14T06:07:24;8.77;;;2.70;;
26337;SDS011;14050;50.950;4.460;2023-03-14T06:12:24;4.65;;;2.28;;
26337;SDS011;14050;50.950;4.460;2023-03-14T06:17:24;4.53;;;2.90;;
26337;SDS011;14050;50.950;4.460;2023-03-14T06:22:24;5.68;;;2.80;;
26337;SDS011;14050;50.950;4.460;2023-03-14T06:27:25;5.53;;;3.17;;
26337;SDS011;14050;50.950;4.460;2023-03-14T06:32:25;6.77;;;3.43;;
26337;SDS011;14050;50.950;4.460;2023-03-14T06:37:26;8.33;;;3.33;;
26337;SDS011;14050;50.950;4.460;2023-03-14T06:42:27;6.15;;;3.60;;
26337;SDS011;14050;50.950;4.460;2023-03-14T06:47:28;9.60;;;5.53;;
26337;SDS011;14050;50.950;4.460;2023-03-14T06:52:28;3.63;;;1.20;;
26337;SDS011;14050;50.950;4.460;2023-03-14T06:57:28;2.10;;;1.00;;
26337;SDS011;14050;50.950;4.460;2023-03-14T07:02:29;2.03;;;1.10;;
26337;SDS011;14050;50.950;4.460;2023-03-14T07:07:30;2.13;;;1.23;;
26337;SDS011;14050;50.950;4.460;2023-03-14T07:12:30;3.55;;;1.27;;
26337;SDS011;14050;50.950;4.460;2023-03-14T07:17:30;4.63;;;1.40;;
26337;SDS011;14050;50.950;4.460;2023-03-14T07:22:31;3.37;;;1.30;;
26337;SDS011;14050;50.950;4.460;2023-03-14T07:27:31;3.63;;;1.33;;
26337;SDS011;14050;50.950;4.460;2023-03-14T07:32:32;8.65;;;1.90;;
26337;SDS011;14050;50.950;4.460;2023-03-14T07:37:32;10.00;;;2.22;;
26337;SDS011;14050;50.950;4.460;2023-03-14T07:42:32;9.10;;;3.08;;
26337;SDS011;14050;50.950;4.460;2023-03-14T07:47:33;8.70;;;4.07;;
26337;SDS011;14050;50.950;4.460;2023-03-14T07:52:33;9.57;;;3.70;;
26337;SDS011;14050;50.950;4.460;2023-03-14T07:57:33;7.77;;;3.80;;
26337;SDS011;14050;50.950;4.460;2023-03-14T08:02:34;8.27;;;3.53;;
26337;SDS011;14050;50.950;4.460;2023-03-14T08:07:36;8.75;;;4.07;;
26337;SDS011;14050;50.950;4.460;2023-03-14T08:12:36;9.10;;;4.30;;
26337;SDS011;14050;50.950;4.460;2023-03-14T08:17:36;7.80;;;3.42;;
26337;SDS011;14050;50.950;4.460;2023-03-14T08:22:36;8.48;;;3.88;;
26337;SDS011;14050;50.950;4.460;2023-03-14T08:27:37;10.23;;;3.33;;
26337;SDS011;14050;50.950;4.460;2023-03-14T08:32:38;6.80;;;3.20;;
26337;SDS011;14050;50.950;4.460;2023-03-14T08:37:39;13.87;;;3.97;;
26337;SDS011;14050;50.950;4.460;2023-03-14T08:42:39;4.70;;;2.05;;
26337;SDS011;14050;50.950;4.460;2023-03-14T08:47:40;7.57;;;2.22;;
26337;SDS011;14050;50.950;4.460;2023-03-14T08:52:41;13.48;;;2.25;;
26337;SDS011;14050;50.950;4.460;2023-03-14T08:57:41;12.32;;;2.78;;
26337;SDS011;14050;50.950;4.460;2023-03-14T09:02:41;8.23;;;3.13;;
26337;SDS011;14050;50.950;4.460;2023-03-14T09:07:43;8.98;;;2.60;;
26337;SDS011;14050;50.950;4.460;2023-03-14T09:12:43;5.97;;;2.50;;
26337;SDS011;14050;50.950;4.460;2023-03-14T09:17:43;5.95;;;2.25;;
26337;SDS011;14050;50.950;4.460;2023-03-14T09:22:44;5.55;;;2.60;;
26337;SDS011;14050;50.950;4.460;2023-03-14T09:27:44;4.30;;;2.88;;
26337;SDS011;14050;50.950;4.460;2023-03-14T09:32:44;7.82;;;3.42;;
26337;SDS011;14050;50.950;4.460;2023-03-14T09:37:45;5.28;;;3.58;;
26337;SDS011;14050;50.950;4.460;2023-03-14T09:42:46;11.90;;;5.07;;
26337;SDS011;14050;50.950;4.460;2023-03-14T09:47:48;9.10;;;4.20;;
26337;SDS011;14050;50.950;4.460;2023-03-14T09:52:49;15.93;;;4.03;;
26337;SDS011;14050;50.950;4.460;2023-03-14T09:57:53;11.15;;;4.32;;
26337;SDS011;14050;50.950;4.460;2023-03-14T10:03:12;15.18;;;4.10;;
26337;SDS011;14050;50.950;4.460;2023-03-14T10:08:19;13.45;;;4.20;;
26337;SDS011;14050;50.950;4.460;2023-03-14T10:18:22;13.18;;;3.78;;
26337;SDS011;14050;50.950;4.460;2023-03-14T10:23:27;13.75;;;3.42;;
26337;SDS011;14050;50.950;4.460;2023-03-14T10:28:29;7.95;;;2.30;;
26337;SDS011;14050;50.950;4.460;2023-03-14T10:33:31;11.93;;;3.20;;
26337;SDS011;14050;50.950;4.460;2023-03-14T10:38:36;6.47;;;1.83;;
26337;SDS011;14050;50.950;4.460;2023-03-14T10:43:37;4.55;;;1.45;;
26337;SDS011;14050;50.950;4.460;2023-03-14T10:48:39;3.08;;;1.20;;
26337;SDS011;14050;50.950;4.460;2023-03-14T10:58:42;4.33;;;1.17;;
26337;SDS011;14050;50.950;4.460;2023-03-14T11:03:47;4.82;;;1.30;;
26337;SDS011;14050;50.950;4.460;2023-03-14T11:09:12;5.57;;;1.23;;
26337;SDS011;14050;50.950;4.460;2023-03-14T11:29:44;2.75;;;0.90;;
26337;SDS011;14050;50.950;4.460;2023-03-14T11:34:52;4.97;;;1.10;;
26337;SDS011;14050;50.950;4.460;2023-03-14T11:39:56;5.88;;;1.50;;
26337;SDS011;14050;50.950;4.460;2023-03-14T11:44:57;22.25;;;11.77;;
26337;SDS011;14050;50.950;4.460;2023-03-14T11:55:20;9.25;;;3.25;;
26337;SDS011;14050;50.950;4.460;2023-03-14T12:00:23;3.88;;;1.50;;
26337;SDS011;14050;50.950;4.460;2023-03-14T12:05:32;5.55;;;1.27;;
26337;SDS011;14050;50.950;4.460;2023-03-14T12:10:51;3.03;;;1.30;;
26337;SDS011;14050;50.950;4.460;2023-03-14T12:15:59;3.83;;;1.33;;
26337;SDS011;14050;50.950;4.460;2023-03-14T12:21:00;9.77;;;1.90;;
26337;SDS011;14050;50.950;4.460;2023-03-14T12:26:18;12.63;;;3.75;;
26337;SDS011;14050;50.950;4.460;2023-03-14T12:36:47;11.25;;;2.53;;
26337;SDS011;14050;50.950;4.460;2023-03-14T12:46:49;17.15;;;2.78;;
26337;SDS011;14050;50.950;4.460;2023-03-14T12:51:53;13.13;;;3.08;;
26337;SDS011;14050;50.950;4.460;2023-03-14T12:57:32;22.08;;;3.90;;
26337;SDS011;14050;50.950;4.460;2023-03-14T13:02:30;13.23;;;3.10;;
26337;SDS011;14050;50.950;4.460;2023-03-14T13:17:59;23.00;;;4.13;;
26337;SDS011;14050;50.950;4.460;2023-03-14T13:23:01;21.52;;;3.83;;
26337;SDS011;14050;50.950;4.460;2023-03-14T13:28:01;33.78;;;5.00;;
26337;SDS011;14050;50.950;4.460;2023-03-14T13:33:03;24.98;;;4.60;;
26337;SDS011;14050;50.950;4.460;2023-03-14T13:38:04;23.98;;;4.60;;
26337;SDS011;14050;50.950;4.460;2023-03-14T13:43:10;29.10;;;5.00;;
26337;SDS011;14050;50.950;4.460;2023-03-14T13:48:12;34.25;;;4.72;;
26337;SDS011;14050;50.950;4.460;2023-03-14T13:53:12;23.08;;;4.35;;
26337;SDS011;14050;50.950;4.460;2023-03-14T13:58:20;27.17;;;4.23;;
26337;SDS011;14050;50.950;4.460;2023-03-14T14:03:21;22.73;;;3.83;;
26337;SDS011;14050;50.950;4.460;2023-03-14T14:08:22;29.15;;;4.53;;
26337;SDS011;14050;50.950;4.460;2023-03-14T14:13:22;23.60;;;3.75;;
26337;SDS011;14050;50.950;4.460;2023-03-14T14:18:24;27.25;;;4.15;;
26337;SDS011;14050;50.950;4.460;2023-03-14T14:23:26;18.95;;;3.08;;
26337;SDS011;14050;50.950;4.460;2023-03-14T14:33:29;15.77;;;2.60;;
26337;SDS011;14050;50.950;4.460;2023-03-14T14:38:29;13.27;;;2.47;;
26337;SDS011;14050;50.950;4.460;2023-03-14T14:43:30;9.45;;;1.65;;
26337;SDS011;14050;50.950;4.460;2023-03-14T14:48:35;3.97;;;0.80;;
26337;SDS011;14050;50.950;4.460;2023-03-14T14:53:37;2.97;;;0.80;;
26337;SDS011;14050;50.950;4.460;2023-03-14T14:58:43;4.47;;;1.20;;
26337;SDS011;14050;50.950;4.460;2023-03-14T15:03:45;4.45;;;1.10;;
26337;SDS011;14050;50.950;4.460;2023-03-14T15:08:46;6.55;;;1.38;;
26337;SDS011;14050;50.950;4.460;2023-03-14T15:13:48;4.10;;;1.13;;
26337;SDS011;14050;50.950;4.460;2023-03-14T15:18:50;5.70;;;1.63;;
26337;SDS011;14050;50.950;4.460;2023-03-14T15:23:52;10.02;;;1.45;;
26337;SDS011;14050;50.950;4.460;2023-03-14T15:28:53;5.93;;;2.30;;
26337;SDS011;14050;50.950;4.460;2023-03-14T15:33:53;6.75;;;1.25;;
26337;SDS011;14050;50.950;4.460;2023-03-14T15:38:54;6.43;;;1.70;;
26337;SDS011;14050;50.950;4.460;2023-03-14T15:43:55;7.32;;;1.60;;
26337;SDS011;14050;50.950;4.460;2023-03-14T15:48:55;7.95;;;1.65;;
26337;SDS011;14050;50.950;4.460;2023-03-14T15:53:56;11.68;;;1.80;;
26337;SDS011;14050;50.950;4.460;2023-03-14T15:58:56;15.18;;;2.30;;
26337;SDS011;14050;50.950;4.460;2023-03-14T16:03:57;13.20;;;2.58;;
26337;SDS011;14050;50.950;4.460;2023-03-14T16:08:57;19.60;;;2.50;;
26337;SDS011;14050;50.950;4.460;2023-03-14T16:13:58;20.35;;;3.13;;
26337;SDS011;14050;50.950;4.460;2023-03-14T16:18:59;15.98;;;3.10;;
26337;SDS011;14050;50.950;4.460;2023-03-14T16:23:59;20.80;;;3.43;;
26337;SDS011;14050;50.950;4.460;2023-03-14T16:29:01;20.08;;;2.95;;
26337;SDS011;14050;50.950;4.460;2023-03-14T16:34:01;21.55;;;3.40;;
26337;SDS011;14050;50.950;4.460;2023-03-14T16:39:03;22.48;;;2.90;;
26337;SDS011;14050;50.950;4.460;2023-03-14T16:44:04;16.10;;;2.90;;
26337;SDS011;14050;50.950;4.460;2023-03-14T16:49:04;17.67;;;3.00;;
26337;SDS011;14050;50.950;4.460;2023-03-14T16:54:05;13.50;;;2.60;;
26337;SDS011;14050;50.950;4.460;2023-03-14T16:59:05;18.77;;;2.55;;
26337;SDS011;14050;50.950;4.460;2023-03-14T17:04:06;16.42;;;2.35;;
26337;SDS011;14050;50.950;4.460;2023-03-14T17:09:08;13.13;;;2.30;;
26337;SDS011;14050;50.950;4.460;2023-03-14T17:14:08;19.97;;;3.23;;
26337;SDS011;14050;50.950;4.460;2023-03-14T17:19:09;21.92;;;3.10;;
26337;SDS011;14050;50.950;4.460;2023-03-14T17:24:09;13.52;;;3.25;;
26337;SDS011;14050;50.950;4.460;2023-03-14T17:29:09;14.80;;;3.20;;
26337;SDS011;14050;50.950;4.460;2023-03-14T17:34:09;11.95;;;3.15;;
26337;SDS011;14050;50.950;4.460;2023-03-14T17:39:10;13.55;;;3.28;;
26337;SDS011;14050;50.950;4.460;2023-03-14T17:44:10;16.05;;;2.92;;
26337;SDS011;14050;50.950;4.460;2023-03-14T17:49:10;14.53;;;2.83;;
26337;SDS011;14050;50.950;4.460;2023-03-14T17:54:11;24.65;;;3.65;;
26337;SDS011;14050;50.950;4.460;2023-03-14T17:59:11;26.73;;;3.93;;
26337;SDS011;14050;50.950;4.460;2023-03-14T18:04:12;14.52;;;3.38;;
26337;SDS011;14050;50.950;4.460;2023-03-14T18:09:13;16.58;;;4.97;;
26337;SDS011;14050;50.950;4.460;2023-03-14T18:14:13;15.35;;;3.65;;
26337;SDS011;14050;50.950;4.460;2023-03-14T18:19:15;16.50;;;3.22;;
26337;SDS011;14050;50.950;4.460;2023-03-14T18:24:18;22.08;;;8.43;;
26337;SDS011;14050;50.950;4.460;2023-03-14T18:29:19;17.85;;;4.35;;
26337;SDS011;14050;50.950;4.460;2023-03-14T18:34:20;20.75;;;4.70;;
26337;SDS011;14050;50.950;4.460;2023-03-14T18:39:21;22.57;;;4.20;;
26337;SDS011;14050;50.950;4.460;2023-03-14T18:44:21;25.55;;;5.28;;
26337;SDS011;14050;50.950;4.460;2023-03-14T18:49:21;25.50;;;5.40;;
26337;SDS011;14050;50.950;4.460;2023-03-14T18:54:22;18.00;;;4.05;;
26337;SDS011;14050;50.950;4.460;2023-03-14T18:59:22;21.53;;;3.77;;
26337;SDS011;14050;50.950;4.460;2023-03-14T19:04:22;23.47;;;3.70;;
26337;SDS011;14050;50.950;4.460;2023-03-14T19:09:22;19.90;;;3.70;;
26337;SDS011;14050;50.950;4.460;2023-03-14T19:14:23;20.47;;;3.80;;
26337;SDS011;14050;50.950;4.460;2023-03-14T19:19:23;30.75;;;6.85;;
26337;SDS011;14050;50.950;4.460;2023-03-14T19:24:23;17.83;;;3.35;;
26337;SDS011;14050;50.950;4.460;2023-03-14T19:29:24;18.63;;;5.63;;
26337;SDS011;14050;50.950;4.460;2023-03-14T19:34:24;22.17;;;4.95;;
26337;SDS011;14050;50.950;4.460;2023-03-14T19:39:24;24.97;;;4.93;;
26337;SDS011;14050;50.950;4.460;2023-03-14T19:44:25;26.87;;;8.27;;
26337;SDS011;14050;50.950;4.460;2023-03-14T19:49:25;24.75;;;9.80;;
26337;SDS011;14050;50.950;4.460;2023-03-14T19:54:26;23.88;;;9.30;;
26337;SDS011;14050;50.950;4.460;2023-03-14T19:59:26;27.57;;;10.60;;
26337;SDS011;14050;50.950;4.460;2023-03-14T20:04:26;27.95;;;9.52;;
26337;SDS011;14050;50.950;4.460;2023-03-14T20:09:27;30.65;;;9.30;;
26337;SDS011;14050;50.950;4.460;2023-03-14T20:14:27;18.88;;;6.07;;
26337;SDS011;14050;50.950;4.460;2023-03-14T20:19:27;25.35;;;6.22;;
26337;SDS011;14050;50.950;4.460;2023-03-14T20:24:28;25.77;;;7.55;;
26337;SDS011;14050;50.950;4.460;2023-03-14T20:29:28;21.47;;;8.13;;
26337;SDS011;14050;50.950;4.460;2023-03-14T20:34:28;25.58;;;5.57;;
26337;SDS011;14050;50.950;4.460;2023-03-14T20:39:31;24.88;;;5.93;;
26337;SDS011;14050;50.950;4.460;2023-03-14T20:44:31;21.98;;;5.82;;
26337;SDS011;14050;50.950;4.460;2023-03-14T20:49:32;19.90;;;5.27;;
26337;SDS011;14050;50.950;4.460;2023-03-14T20:54:32;27.40;;;5.90;;
26337;SDS011;14050;50.950;4.460;2023-03-14T20:59:32;23.55;;;5.78;;
26337;SDS011;14050;50.950;4.460;2023-03-14T21:04:33;21.00;;;6.00;;
26337;SDS011;14050;50.950;4.460;2023-03-14T21:09:33;23.48;;;6.18;;
26337;SDS011;14050;50.950;4.460;2023-03-14T21:14:33;22.13;;;5.95;;
26337;SDS011;14050;50.950;4.460;2023-03-14T21:19:34;22.60;;;5.80;;
26337;SDS011;14050;50.950;4.460;2023-03-14T21:24:34;17.70;;;4.95;;
26337;SDS011;14050;50.950;4.460;2023-03-14T21:29:34;15.63;;;4.97;;
26337;SDS011;14050;50.950;4.460;2023-03-14T21:34:36;11.70;;;3.50;;
26337;SDS011;14050;50.950;4.460;2023-03-14T21:39:36;13.13;;;3.28;;
26337;SDS011;14050;50.950;4.460;2023-03-14T21:44:36;9.77;;;3.35;;
26337;SDS011;14050;50.950;4.460;2023-03-14T21:49:37;9.93;;;3.70;;
26337;SDS011;14050;50.950;4.460;2023-03-14T21:54:37;14.80;;;3.55;;
26337;SDS011;14050;50.950;4.460;2023-03-14T21:59:38;10.80;;;3.63;;
26337;SDS011;14050;50.950;4.460;2023-03-14T22:04:38;15.13;;;3.83;;
26337;SDS011;14050;50.950;4.460;2023-03-14T22:09:40;12.23;;;3.93;;
26337;SDS011;14050;50.950;4.460;2023-03-14T22:14:40;19.27;;;4.22;;
26337;SDS011;14050;50.950;4.460;2023-03-14T22:19:41;12.70;;;3.83;;
26337;SDS011;14050;50.950;4.460;2023-03-14T22:24:41;15.50;;;5.18;;
26337;SDS011;14050;50.950;4.460;2023-03-14T22:29:41;19.38;;;5.80;;
26337;SDS011;14050;50.950;4.460;2023-03-14T22:34:42;21.20;;;6.90;;
26337;SDS011;14050;50.950;4.460;2023-03-14T22:39:44;20.60;;;6.10;;
26337;SDS011;14050;50.950;4.460;2023-03-14T22:44:44;15.85;;;5.90;;
26337;SDS011;14050;50.950;4.460;2023-03-14T22:49:45;17.70;;;5.90;;
26337;SDS011;14050;50.950;4.460;2023-03-14T22:54:45;19.70;;;6.40;;
26337;SDS011;14050;50.950;4.460;2023-03-14T22:59:45;16.33;;;5.83;;
26337;SDS011;14050;50.950;4.460;2023-03-14T23:04:46;17.30;;;6.10;;
26337;SDS011;14050;50.950;4.460;2023-03-14T23:09:46;20.75;;;6.15;;
26337;SDS011;14050;50.950;4.460;2023-03-14T23:14:46;24.63;;;6.80;;
26337;SDS011;14050;50.950;4.460;2023-03-14T23:19:46;16.08;;;5.30;;
26337;SDS011;14050;50.950;4.460;2023-03-14T23:24:48;23.48;;;6.38;;
26337;SDS011;14050;50.950;4.460;2023-03-14T23:29:48;24.77;;;8.20;;
26337;SDS011;14050;50.950;4.460;2023-03-14T23:34:49;18.08;;;6.90;;
26337;SDS011;14050;50.950;4.460;2023-03-14T23:39:50;16.75;;;6.10;;
26337;SDS011;14050;50.950;4.460;2023-03-14T23:44:51;12.55;;;4.30;;
26337;SDS011;14050;50.950;4.460;2023-03-14T23:49:52;9.13;;;3.28;;
26337;SDS011;14050;50.950;4.460;2023-03-14T23:54:52;8.30;;;3.20;;
26337;SDS011;14050;50.950;4.460;2023-03-14T23:59:52;7.13;;;2.90;;
